createdAt,value
2019-01-29T00:01:04.584Z,99.90
2019-01-29T00:03:34.977Z,99.90
2019-01-29T00:06:04.728Z,99.90
2019-01-29T00:08:35.952Z,99.90
2019-01-29T00:11:05.489Z,99.90
2019-01-29T00:13:35.028Z,99.90
2019-01-29T00:16:04.906Z,99.90
2019-01-29T00:18:34.400Z,99.90
2019-01-29T00:21:03.787Z,99.90
2019-01-29T00:23:34.936Z,99.90
2019-01-29T00:26:04.371Z,99.90
2019-01-29T00:28:33.809Z,99.90
2019-01-29T00:31:03.192Z,99.90
2019-01-29T00:33:32.490Z,99.90
2019-01-29T00:36:01.855Z,99.90
2019-01-29T00:38:31.200Z,99.90
2019-01-29T00:41:00.631Z,99.90
2019-01-29T00:43:30.037Z,99.90
2019-01-29T00:46:00.508Z,99.90
2019-01-29T00:48:29.842Z,99.90
2019-01-29T00:50:59.191Z,99.90
2019-01-29T00:53:28.524Z,99.90
2019-01-29T00:55:57.884Z,99.90
2019-01-29T00:58:27.211Z,99.90
2019-01-29T01:00:58.448Z,99.90
2019-01-29T01:03:27.776Z,99.90
2019-01-29T01:05:57.167Z,99.90
2019-01-29T01:08:26.474Z,99.90
2019-01-29T01:10:57.080Z,99.90
2019-01-29T01:13:26.404Z,99.90
2019-01-29T01:15:55.791Z,99.90
2019-01-29T01:18:25.122Z,99.90
2019-01-29T01:20:54.572Z,99.90
2019-01-29T01:23:23.996Z,99.90
2019-01-29T01:25:53.489Z,99.90
2019-01-29T01:28:22.893Z,99.90
2019-01-29T01:30:52.276Z,99.90
2019-01-29T01:33:21.604Z,99.90
2019-01-29T01:35:50.957Z,99.90
2019-01-29T01:38:20.311Z,99.90
2019-01-29T01:40:49.725Z,99.90
2019-01-29T01:43:19.162Z,99.90
2019-01-29T01:45:48.601Z,99.90
2019-01-29T01:48:18.303Z,99.90
2019-01-29T01:50:47.676Z,99.90
2019-01-29T01:53:18.613Z,99.90
2019-01-29T01:55:49.419Z,99.90
2019-01-29T01:58:18.805Z,99.90
2019-01-29T02:00:48.207Z,99.90
2019-01-29T02:03:17.611Z,99.90
2019-01-29T02:05:47.095Z,99.90
2019-01-29T02:08:16.540Z,99.90
2019-01-29T02:10:45.944Z,99.90
2019-01-29T02:13:15.479Z,99.90
2019-01-29T02:15:44.957Z,99.90
2019-01-29T02:18:14.729Z,99.90
2019-01-29T02:20:44.524Z,99.90
2019-01-29T02:23:14.588Z,99.90
2019-01-29T02:25:44.399Z,99.90
2019-01-29T02:28:47.151Z,99.90
2019-01-29T02:31:23.312Z,99.90
2019-01-29T02:37:29.597Z,99.90
2019-01-29T02:40:10.208Z,99.90
2019-01-29T02:42:51.672Z,99.90
2019-01-29T02:45:33.143Z,99.90
2019-01-29T02:48:14.430Z,99.90
2019-01-29T02:50:55.899Z,99.90
2019-01-29T02:53:37.043Z,99.90
2019-01-29T02:56:18.672Z,99.90
2019-01-29T02:59:00.053Z,99.90
2019-01-29T03:01:40.957Z,99.90
2019-01-29T03:04:21.653Z,99.90
2019-01-29T03:07:03.095Z,99.90
2019-01-29T03:09:44.329Z,99.90
2019-01-29T03:12:23.887Z,99.90
2019-01-29T03:20:51.610Z,99.90
2019-01-29T03:23:32.351Z,99.90
2019-01-29T03:26:13.487Z,99.90
2019-01-29T03:28:54.942Z,99.90
2019-01-29T03:31:36.522Z,99.90
2019-01-29T03:34:17.890Z,99.90
2019-01-29T03:36:58.500Z,99.90
2019-01-29T03:39:39.990Z,99.90
2019-01-29T03:42:21.184Z,99.90
2019-01-29T03:45:01.985Z,99.90
2019-01-29T03:47:43.536Z,99.90
2019-01-29T03:50:25.014Z,99.90
2019-01-29T03:53:06.368Z,99.90
2019-01-29T03:55:47.213Z,99.90
2019-01-29T03:58:28.430Z,99.90
2019-01-29T04:01:09.819Z,99.90
2019-01-29T04:03:51.287Z,99.90
2019-01-29T04:06:33.113Z,99.90
2019-01-29T04:09:14.271Z,99.90
2019-01-29T04:11:55.709Z,99.90
2019-01-29T04:14:37.263Z,99.90
2019-01-29T04:17:18.898Z,99.90
2019-01-29T04:20:00.300Z,99.90
2019-01-29T04:22:45.858Z,99.90
2019-01-29T04:25:27.683Z,99.90
2019-01-29T04:28:08.763Z,99.90
2019-01-29T04:30:50.319Z,99.90
2019-01-29T04:33:31.568Z,99.90
2019-01-29T04:36:13.301Z,99.90
2019-01-29T04:38:54.233Z,99.90
2019-01-29T04:44:25.268Z,99.90
2019-01-29T04:46:55.154Z,99.90
2019-01-29T04:49:24.496Z,99.90
2019-01-29T04:52:14.344Z,99.90
2019-01-29T04:58:13.373Z,99.90
2019-01-29T05:01:03.122Z,99.90
2019-01-29T05:03:33.002Z,99.90
2019-01-29T05:06:03.103Z,99.90
2019-01-29T05:08:33.334Z,99.90
2019-01-29T05:11:03.804Z,99.90
2019-01-29T05:13:34.677Z,99.90
2019-01-29T05:16:05.499Z,99.90
2019-01-29T05:18:35.662Z,99.90
2019-01-29T05:21:16.420Z,99.90
2019-01-29T05:24:06.472Z,99.90
2019-01-29T05:26:40.524Z,99.90
2019-01-29T05:29:21.092Z,99.90
2019-01-29T05:32:02.492Z,99.90
2019-01-29T05:34:43.127Z,99.90
2019-01-29T05:37:23.829Z,99.90
2019-01-29T05:40:04.535Z,99.90
2019-01-29T05:42:45.759Z,99.90
2019-01-29T05:45:27.138Z,99.90
2019-01-29T05:48:08.444Z,99.90
2019-01-29T05:50:49.971Z,99.90
2019-01-29T05:53:30.804Z,99.90
2019-01-29T05:56:12.220Z,99.90
2019-01-29T05:58:52.830Z,99.90
2019-01-29T06:01:34.220Z,99.90
2019-01-29T06:04:15.704Z,99.90
2019-01-29T06:06:57.088Z,99.90
2019-01-29T06:09:38.474Z,99.90
2019-01-29T06:12:19.108Z,99.90
2019-01-29T06:15:00.484Z,99.90
2019-01-29T06:17:41.064Z,99.90
2019-01-29T06:20:21.290Z,99.90
2019-01-29T06:26:17.186Z,99.90
2019-01-29T06:29:17.399Z,99.90
2019-01-29T06:31:55.724Z,99.90
2019-01-29T06:43:40.397Z,99.90
2019-01-29T06:46:43.264Z,99.90
2019-01-29T06:55:35.876Z,99.90
2019-01-29T06:58:28.689Z,99.90
2019-01-29T07:04:03.877Z,99.90
2019-01-29T07:09:46.383Z,99.90
2019-01-29T07:12:34.825Z,99.90
2019-01-29T07:19:10.810Z,99.90
2019-01-29T07:21:51.795Z,99.90
2019-01-29T07:24:33.102Z,99.90
2019-01-29T07:27:14.738Z,99.90
2019-01-29T07:29:56.098Z,99.90
2019-01-29T07:32:37.704Z,99.90
2019-01-29T07:35:19.056Z,99.90
2019-01-29T07:38:00.270Z,99.90
2019-01-29T07:40:41.709Z,99.90
2019-01-29T07:43:23.043Z,99.90
2019-01-29T07:46:04.504Z,99.90
2019-01-29T07:48:45.932Z,99.90
2019-01-29T07:51:27.312Z,99.90
2019-01-29T07:54:08.165Z,99.90
2019-01-29T07:56:49.676Z,99.90
2019-01-29T07:59:33.138Z,99.90
2019-01-29T08:02:13.402Z,99.90
2019-01-29T08:04:53.908Z,99.90
2019-01-29T08:07:35.390Z,99.90
2019-01-29T08:10:16.050Z,99.90
2019-01-29T08:12:57.609Z,99.90
2019-01-29T08:15:39.143Z,99.90
2019-01-29T08:18:20.723Z,99.90
2019-01-29T08:21:02.079Z,99.90
2019-01-29T08:23:43.188Z,99.90
2019-01-29T08:26:24.673Z,99.90
2019-01-29T08:29:06.196Z,99.90
2019-01-29T08:31:46.116Z,99.90
2019-01-29T08:37:30.177Z,99.90
2019-01-29T08:40:19.343Z,99.90
2019-01-29T08:43:08.173Z,99.90
2019-01-29T08:49:10.573Z,99.90
2019-01-29T08:51:47.466Z,99.90
2019-01-29T08:57:59.824Z,99.90
2019-01-29T09:00:36.353Z,99.90
2019-01-29T09:03:39.254Z,99.90
2019-01-29T09:06:16.764Z,99.90
2019-01-29T09:12:49.179Z,99.90
2019-01-29T09:21:23.051Z,99.90
2019-01-29T09:24:04.570Z,99.90
2019-01-29T09:26:45.892Z,99.90
2019-01-29T09:29:27.485Z,99.90
2019-01-29T09:32:09.399Z,99.90
2019-01-29T09:34:50.524Z,99.90
2019-01-29T09:37:31.589Z,99.90
2019-01-29T09:40:12.255Z,99.90
2019-01-29T09:42:53.197Z,99.90
2019-01-29T09:45:34.462Z,99.90
2019-01-29T09:48:04.397Z,99.90
2019-01-29T09:50:52.764Z,99.90
2019-01-29T09:59:17.916Z,99.90
2019-01-29T10:02:06.888Z,99.90
2019-01-29T10:22:25.434Z,99.90
2019-01-29T10:25:07.209Z,99.90
2019-01-29T10:27:48.704Z,99.90
2019-01-29T10:48:30.709Z,99.90
2019-01-29T10:51:33.578Z,99.90
2019-01-29T11:03:48.426Z,89.20
2019-01-29T11:18:38.286Z,82.30
2019-01-29T11:21:19.523Z,78.50
2019-01-29T11:24:00.664Z,75.10
2019-01-29T11:26:41.798Z,69.60
2019-01-29T11:29:23.403Z,68.20
2019-01-29T11:32:04.500Z,62.60
2019-01-29T11:34:46.307Z,64.30
2019-01-29T11:37:27.567Z,62.90
2019-01-29T11:40:08.918Z,62.50
2019-01-29T11:42:50.189Z,62.70
2019-01-29T11:45:31.431Z,62.80
2019-01-29T11:48:12.770Z,61.50
2019-01-29T11:50:53.945Z,61.50
2019-01-29T11:53:35.036Z,60.50
2019-01-29T11:56:15.738Z,61.70
2019-01-29T12:01:46.588Z,64.10
2019-01-29T12:04:28.498Z,60.80
2019-01-29T12:07:10.053Z,59.50
2019-01-29T12:09:51.099Z,59.40
2019-01-29T12:12:35.123Z,59.00
2019-01-29T12:15:16.959Z,59.70
2019-01-29T12:17:58.462Z,59.90
2019-01-29T12:20:38.689Z,61.10
2019-01-29T12:32:26.091Z,53.90
2019-01-29T12:35:14.566Z,53.60
2019-01-29T12:38:02.950Z,54.90
2019-01-29T12:40:44.271Z,52.80
2019-01-29T12:43:24.964Z,53.10
2019-01-29T12:46:06.448Z,53.80
2019-01-29T12:48:47.945Z,54.30
2019-01-29T12:54:33.138Z,54.60
2019-01-29T12:57:14.621Z,54.20
2019-01-29T12:59:55.379Z,54.70
2019-01-29T13:02:36.755Z,55.40
2019-01-29T13:05:18.044Z,55.60
2019-01-29T13:07:59.650Z,55.00
2019-01-29T13:10:40.976Z,54.00
2019-01-29T13:13:21.791Z,54.60
2019-01-29T13:16:06.125Z,52.00
2019-01-29T13:18:46.842Z,52.20
2019-01-29T13:21:28.256Z,51.90
2019-01-29T13:24:08.852Z,51.50
2019-01-29T13:26:49.435Z,52.00
2019-01-29T13:29:30.553Z,51.80
2019-01-29T13:32:11.336Z,51.90
2019-01-29T13:34:52.136Z,52.30
2019-01-29T13:37:33.362Z,52.00
2019-01-29T13:40:14.155Z,51.90
2019-01-29T13:42:54.870Z,51.20
2019-01-29T13:45:35.538Z,51.30
2019-01-29T13:48:16.897Z,51.50
2019-01-29T13:50:57.509Z,51.60
2019-01-29T13:53:38.173Z,51.30
2019-01-29T13:56:18.980Z,51.50
2019-01-29T13:58:59.805Z,51.30
2019-01-29T14:01:40.316Z,51.80
2019-01-29T14:04:20.990Z,52.20
2019-01-29T14:07:01.860Z,52.50
2019-01-29T14:09:43.056Z,52.60
2019-01-29T14:12:24.203Z,53.30
2019-01-29T14:15:04.947Z,53.20
2019-01-29T14:17:47.221Z,53.00
2019-01-29T14:20:28.270Z,53.40
2019-01-29T14:23:09.746Z,53.80
2019-01-29T14:25:51.045Z,53.70
2019-01-29T14:28:20.511Z,53.70
2019-01-29T14:30:49.917Z,54.70
2019-01-29T14:33:19.903Z,54.70
2019-01-29T14:35:49.360Z,55.20
2019-01-29T14:38:58.171Z,55.20
2019-01-29T14:41:27.516Z,55.30
2019-01-29T14:44:00.639Z,55.20
2019-01-29T14:46:30.071Z,56.80
2019-01-29T14:48:59.512Z,57.20
2019-01-29T14:51:28.947Z,57.50
2019-01-29T14:53:58.277Z,57.50
2019-01-29T14:56:28.769Z,58.60
2019-01-29T14:58:58.137Z,58.70
2019-01-29T15:01:34.709Z,58.60
2019-01-29T15:04:05.655Z,59.50
2019-01-29T15:06:35.819Z,60.10
2019-01-29T15:09:09.687Z,61.50
2019-01-29T15:11:39.110Z,62.10
2019-01-29T15:14:09.961Z,63.40
2019-01-29T15:17:10.755Z,64.20
2019-01-29T15:19:40.459Z,66.10
2019-01-29T15:22:10.115Z,65.80
2019-01-29T15:24:39.505Z,67.90
2019-01-29T15:27:08.846Z,69.10
2019-01-29T15:29:38.225Z,70.10
2019-01-29T15:32:07.582Z,69.90
2019-01-29T15:34:36.973Z,70.90
2019-01-29T15:37:06.476Z,71.90
2019-01-29T15:39:37.313Z,72.90
2019-01-29T15:42:06.801Z,74.50
2019-01-29T15:44:36.323Z,75.10
2019-01-29T15:47:05.771Z,76.10
2019-01-29T15:49:35.192Z,75.90
2019-01-29T15:52:04.536Z,76.60
2019-01-29T15:54:33.972Z,75.80
2019-01-29T15:57:03.335Z,76.20
2019-01-29T15:59:32.801Z,76.60
2019-01-29T16:02:02.151Z,76.70
2019-01-29T16:04:31.588Z,78.00
2019-01-29T16:07:02.382Z,76.70
2019-01-29T16:09:32.759Z,77.40
2019-01-29T16:12:03.734Z,78.20
2019-01-29T16:14:33.185Z,77.70
2019-01-29T16:17:02.505Z,79.60
2019-01-29T16:19:31.918Z,77.70
2019-01-29T16:22:01.297Z,77.00
2019-01-29T16:24:30.682Z,76.60
2019-01-29T16:27:06.631Z,76.20
2019-01-29T16:29:31.136Z,76.30
2019-01-29T16:32:00.569Z,77.10
2019-01-29T16:34:29.974Z,77.50
2019-01-29T16:36:59.346Z,78.20
2019-01-29T16:39:28.729Z,79.40
2019-01-29T16:41:58.109Z,79.70
2019-01-29T16:44:27.525Z,80.60
2019-01-29T16:46:56.980Z,82.20
2019-01-29T16:49:26.459Z,83.60
2019-01-29T16:51:56.028Z,85.00
2019-01-29T16:54:25.388Z,85.80
2019-01-29T16:56:54.783Z,86.70
2019-01-29T16:59:24.192Z,87.70
2019-01-29T17:01:53.748Z,88.00
2019-01-29T17:04:23.128Z,88.40
2019-01-29T17:06:52.546Z,89.20
2019-01-29T17:09:22.000Z,89.30
2019-01-29T17:11:51.411Z,90.00
2019-01-29T17:14:20.798Z,90.30
2019-01-29T17:16:50.244Z,90.70
2019-01-29T17:19:19.637Z,91.20
2019-01-29T17:21:49.050Z,91.20
2019-01-29T17:24:18.406Z,91.60
2019-01-29T17:26:47.850Z,92.00
2019-01-29T17:29:17.286Z,91.90
2019-01-29T17:31:46.701Z,92.40
2019-01-29T17:34:16.157Z,92.80
2019-01-29T17:36:45.534Z,93.20
2019-01-29T17:39:14.915Z,93.00
2019-01-29T17:41:44.470Z,93.70
2019-01-29T17:44:13.963Z,94.10
2019-01-29T17:46:43.403Z,94.70
2019-01-29T17:49:12.739Z,95.20
2019-01-29T17:51:42.099Z,95.70
2019-01-29T17:54:11.537Z,96.00
2019-01-29T17:56:40.949Z,96.00
2019-01-29T17:59:10.330Z,96.60
2019-01-29T18:01:39.744Z,96.80
2019-01-29T18:04:09.408Z,97.20
2019-01-29T18:06:39.992Z,97.70
2019-01-29T18:09:10.436Z,98.10
2019-01-29T18:11:39.779Z,98.10
2019-01-29T18:14:09.706Z,99.20
2019-01-29T18:16:39.168Z,99.30
2019-01-29T18:19:08.853Z,99.80
2019-01-29T18:21:38.479Z,99.90
2019-01-29T18:24:08.110Z,99.90
2019-01-29T18:26:37.732Z,99.90
2019-01-29T18:29:08.388Z,99.90
2019-01-29T18:31:37.926Z,99.90
2019-01-29T18:34:08.574Z,99.90
2019-01-29T18:36:37.930Z,99.90
2019-01-29T18:39:09.854Z,99.90
2019-01-29T18:41:39.253Z,99.90
2019-01-29T18:44:11.305Z,99.90
2019-01-29T18:46:40.678Z,99.90
2019-01-29T18:49:11.852Z,99.90
2019-01-29T18:51:41.375Z,99.90
2019-01-29T18:54:10.793Z,99.90
2019-01-29T18:56:40.473Z,99.90
2019-01-29T18:59:09.857Z,99.90
2019-01-29T19:01:39.375Z,99.90
2019-01-29T19:04:08.808Z,99.90
2019-01-29T19:06:40.417Z,99.90
2019-01-29T19:09:09.928Z,99.90
2019-01-29T19:11:39.332Z,99.90
2019-01-29T19:14:09.896Z,99.90
2019-01-29T19:16:39.474Z,99.90
2019-01-29T19:19:08.936Z,99.90
2019-01-29T19:21:40.830Z,99.90
2019-01-29T19:24:10.236Z,99.90
2019-01-29T19:26:39.654Z,99.90
2019-01-29T19:29:09.024Z,99.90
2019-01-29T19:31:39.774Z,99.90
2019-01-29T19:34:11.081Z,99.90
2019-01-29T19:36:40.439Z,99.90
2019-01-29T19:39:10.329Z,99.90
2019-01-29T19:41:39.820Z,99.90
2019-01-29T19:44:09.214Z,99.90
2019-01-29T19:46:39.730Z,99.90
2019-01-29T19:49:09.205Z,99.90
2019-01-29T19:51:38.857Z,99.90
2019-01-29T19:54:08.238Z,99.90
2019-01-29T19:56:37.695Z,99.90
2019-01-29T19:59:07.559Z,99.90
2019-01-29T20:01:38.188Z,99.90
2019-01-29T20:04:07.596Z,99.90
2019-01-29T20:06:37.054Z,99.90
2019-01-29T20:09:11.825Z,99.90
2019-01-29T20:11:42.716Z,99.90
2019-01-29T20:14:12.268Z,99.90
2019-01-29T20:16:42.728Z,99.90
2019-01-29T20:19:12.416Z,99.90
2019-01-29T20:21:42.849Z,99.90
2019-01-29T20:24:14.228Z,99.90
2019-01-29T20:26:45.443Z,99.90
2019-01-29T20:29:14.946Z,99.90
2019-01-29T20:31:45.405Z,99.90
2019-01-29T20:34:15.075Z,99.90
2019-01-29T20:36:46.200Z,99.90
2019-01-29T20:39:15.683Z,99.90
2019-01-29T20:41:45.024Z,99.90
2019-01-29T20:44:14.423Z,99.90
2019-01-29T20:46:44.004Z,99.90
2019-01-29T20:49:13.750Z,99.90
2019-01-29T20:57:25.258Z,99.90
2019-01-29T21:03:29.744Z,99.90
2019-01-29T21:06:18.191Z,99.90
2019-01-29T21:09:08.398Z,99.90
2019-01-29T21:11:56.939Z,99.90
2019-01-29T21:14:45.648Z,99.90
2019-01-29T21:17:34.140Z,99.90
2019-01-29T21:23:30.413Z,99.90
2019-01-29T21:26:11.850Z,99.90
2019-01-29T21:29:02.468Z,99.90
2019-01-29T21:31:35.861Z,99.90
2019-01-29T21:34:16.582Z,99.90
2019-01-29T21:36:58.157Z,99.90
2019-01-29T21:39:38.761Z,99.90
2019-01-29T21:42:08.288Z,99.90
2019-01-29T21:44:56.680Z,99.90
2019-01-29T21:47:45.292Z,99.90
2019-01-29T21:50:33.850Z,99.90
2019-01-29T21:53:22.320Z,99.90
2019-01-29T21:55:51.799Z,99.90
2019-01-29T21:58:40.189Z,99.90
2019-01-29T22:01:28.754Z,99.90
2019-01-29T22:04:17.163Z,99.90
2019-01-29T22:06:46.514Z,99.90
2019-01-29T22:09:15.964Z,99.90
2019-01-29T22:12:04.460Z,99.90
2019-01-29T22:14:33.792Z,99.90
2019-01-29T22:17:03.188Z,99.90
2019-01-29T22:19:51.624Z,99.90
2019-01-29T22:22:32.613Z,99.90
2019-01-29T22:25:13.206Z,99.90
2019-01-29T22:27:53.896Z,99.90
2019-01-29T22:30:35.298Z,99.90
2019-01-29T22:33:15.908Z,99.90
2019-01-29T22:35:57.387Z,99.90
2019-01-29T22:38:38.772Z,99.90
2019-01-29T22:41:20.449Z,99.90
2019-01-29T22:44:01.066Z,99.90
2019-01-29T22:46:42.555Z,99.90
2019-01-29T22:49:23.187Z,99.90
2019-01-29T22:52:03.914Z,99.90
2019-01-29T22:54:44.492Z,99.90
2019-01-29T22:57:25.098Z,99.90
2019-01-29T23:00:05.926Z,99.90
2019-01-29T23:02:46.645Z,99.90
2019-01-29T23:05:27.360Z,99.90
2019-01-29T23:08:08.817Z,99.90
2019-01-29T23:10:49.509Z,99.90
2019-01-29T23:13:30.137Z,99.90
2019-01-29T23:16:10.826Z,99.90
2019-01-29T23:18:52.333Z,99.90
2019-01-29T23:21:33.859Z,99.90
2019-01-29T23:24:15.420Z,99.90
2019-01-29T23:26:56.796Z,99.90
2019-01-29T23:29:43.686Z,99.90
2019-01-29T23:32:20.736Z,99.90
2019-01-29T23:35:02.057Z,99.90
2019-01-29T23:37:42.634Z,99.90
2019-01-29T23:40:23.397Z,99.90
2019-01-29T23:43:04.559Z,99.90
2019-01-29T23:45:45.479Z,99.90
2019-01-29T23:48:26.912Z,99.90
2019-01-29T23:51:08.423Z,99.90
2019-01-29T23:53:49.687Z,99.90
2019-01-29T23:56:30.312Z,99.90
2019-01-29T23:59:11.717Z,99.90
